createdAt,value
2019-04-01T00:00:57.000Z,27
2019-04-01T00:01:57.000Z,27
2019-04-01T00:02:57.000Z,27
2019-04-01T00:03:57.000Z,27
2019-04-01T00:04:57.000Z,27
2019-04-01T00:05:57.000Z,27
2019-04-01T00:06:57.000Z,27
2019-04-01T00:07:57.000Z,27
2019-04-01T00:08:58.000Z,27
2019-04-01T00:09:58.000Z,27
2019-04-01T00:10:58.000Z,27
2019-04-01T00:11:58.000Z,27
2019-04-01T00:12:58.000Z,27
2019-04-01T00:13:58.000Z,27
2019-04-01T00:14:58.000Z,27
2019-04-01T00:16:58.000Z,27
2019-04-01T00:18:58.000Z,27
2019-04-01T00:19:58.000Z,27
2019-04-01T00:21:58.000Z,27
2019-04-01T00:22:58.000Z,27
2019-04-01T00:23:58.000Z,27
2019-04-01T00:24:58.000Z,27
2019-04-01T00:25:58.000Z,27
2019-04-01T00:26:58.000Z,27
2019-04-01T00:27:58.000Z,27
2019-04-01T00:28:58.000Z,27
2019-04-01T00:29:58.000Z,27
2019-04-01T00:30:58.000Z,27
2019-04-01T00:31:58.000Z,27
2019-04-01T00:32:58.000Z,27
2019-04-01T00:33:58.000Z,27
2019-04-01T00:34:58.000Z,27
2019-04-01T00:35:58.000Z,27
2019-04-01T00:36:58.000Z,27
2019-04-01T00:37:58.000Z,27
2019-04-01T00:38:58.000Z,27
2019-04-01T00:39:58.000Z,27
2019-04-01T00:40:58.000Z,27
2019-04-01T00:41:58.000Z,27
2019-04-01T00:42:58.000Z,27
2019-04-01T00:43:58.000Z,27
2019-04-01T00:44:58.000Z,27
2019-04-01T00:45:58.000Z,27
2019-04-01T00:46:58.000Z,27
2019-04-01T00:47:58.000Z,27
2019-04-01T00:48:58.000Z,27
2019-04-01T00:49:58.000Z,27
2019-04-01T00:50:58.000Z,27
2019-04-01T00:51:58.000Z,27
2019-04-01T00:52:58.000Z,27
2019-04-01T00:53:58.000Z,27
2019-04-01T00:54:58.000Z,27
2019-04-01T00:56:58.000Z,27
2019-04-01T00:57:58.000Z,27
2019-04-01T00:58:58.000Z,27
2019-04-01T00:59:58.000Z,27
2019-04-01T01:00:58.000Z,27
2019-04-01T01:02:58.000Z,27
2019-04-01T01:03:58.000Z,27
2019-04-01T01:05:58.000Z,27
2019-04-01T01:06:58.000Z,27
2019-04-01T01:07:58.000Z,27
2019-04-01T01:08:58.000Z,27
2019-04-01T01:09:58.000Z,27
2019-04-01T01:10:58.000Z,27
2019-04-01T01:12:58.000Z,27
2019-04-01T01:14:58.000Z,27
2019-04-01T01:15:58.000Z,27
2019-04-01T01:16:58.000Z,27
2019-04-01T01:17:58.000Z,27
2019-04-01T01:18:58.000Z,27
2019-04-01T01:19:58.000Z,27
2019-04-01T01:20:58.000Z,27
2019-04-01T01:21:58.000Z,27
2019-04-01T01:22:58.000Z,27
2019-04-01T01:23:58.000Z,27
2019-04-01T01:24:58.000Z,27
2019-04-01T01:25:58.000Z,27
2019-04-01T01:26:58.000Z,27
2019-04-01T01:27:58.000Z,27
2019-04-01T01:28:58.000Z,27
2019-04-01T01:29:58.000Z,27
2019-04-01T01:30:58.000Z,27
2019-04-01T01:31:58.000Z,27
2019-04-01T01:33:58.000Z,27
2019-04-01T01:34:58.000Z,27
2019-04-01T01:36:58.000Z,27
2019-04-01T01:37:58.000Z,27
2019-04-01T01:38:58.000Z,27
2019-04-01T01:39:58.000Z,27
2019-04-01T01:40:58.000Z,27
2019-04-01T01:41:58.000Z,27
2019-04-01T01:42:58.000Z,27
2019-04-01T01:43:58.000Z,27
2019-04-01T01:44:58.000Z,27
2019-04-01T01:45:58.000Z,27
2019-04-01T01:46:58.000Z,27
2019-04-01T01:47:58.000Z,27
2019-04-01T01:48:58.000Z,27
2019-04-01T01:49:58.000Z,27
2019-04-01T01:51:58.000Z,27
2019-04-01T01:53:58.000Z,27
2019-04-01T01:54:58.000Z,27
2019-04-01T01:55:58.000Z,27
2019-04-01T01:56:58.000Z,27
2019-04-01T01:57:58.000Z,27
2019-04-01T01:58:58.000Z,27
2019-04-01T02:00:58.000Z,27
2019-04-01T02:01:58.000Z,27
2019-04-01T02:03:58.000Z,27
2019-04-01T02:04:58.000Z,27
2019-04-01T02:05:58.000Z,27
2019-04-01T02:06:58.000Z,27
2019-04-01T02:07:58.000Z,27
2019-04-01T02:08:58.000Z,27
2019-04-01T02:09:58.000Z,27
2019-04-01T02:10:58.000Z,27
2019-04-01T02:11:58.000Z,27
2019-04-01T02:12:58.000Z,27
2019-04-01T02:13:58.000Z,27
2019-04-01T02:14:58.000Z,27
2019-04-01T02:15:57.000Z,27
2019-04-01T02:16:57.000Z,27
2019-04-01T02:17:57.000Z,27
2019-04-01T02:18:57.000Z,27
2019-04-01T02:19:57.000Z,27
2019-04-01T02:20:57.000Z,27
2019-04-01T02:21:57.000Z,27
2019-04-01T02:22:57.000Z,27
2019-04-01T02:23:57.000Z,27
2019-04-01T02:24:57.000Z,27
2019-04-01T02:25:57.000Z,27
2019-04-01T02:26:57.000Z,27
2019-04-01T02:27:57.000Z,27
2019-04-01T02:28:57.000Z,27
2019-04-01T02:29:57.000Z,27
2019-04-01T02:31:57.000Z,27
2019-04-01T02:32:57.000Z,27
2019-04-01T02:33:57.000Z,27
2019-04-01T02:34:57.000Z,27
2019-04-01T02:35:57.000Z,27
2019-04-01T02:36:57.000Z,27
2019-04-01T02:37:57.000Z,27
2019-04-01T02:38:57.000Z,27
2019-04-01T02:39:57.000Z,27
2019-04-01T02:41:57.000Z,27
2019-04-01T02:42:57.000Z,27
2019-04-01T02:43:57.000Z,27
2019-04-01T02:44:57.000Z,27
2019-04-01T02:45:57.000Z,27
2019-04-01T02:47:57.000Z,27
2019-04-01T02:48:57.000Z,27
2019-04-01T02:49:57.000Z,27
2019-04-01T02:50:57.000Z,27
2019-04-01T02:51:57.000Z,27
2019-04-01T02:52:57.000Z,27
2019-04-01T02:53:57.000Z,27
2019-04-01T02:54:57.000Z,27
2019-04-01T02:55:57.000Z,27
2019-04-01T02:56:57.000Z,27
2019-04-01T02:57:57.000Z,27
2019-04-01T02:59:57.000Z,27
2019-04-01T03:00:57.000Z,27
2019-04-01T03:01:57.000Z,27
2019-04-01T03:02:57.000Z,27
2019-04-01T03:03:57.000Z,27
2019-04-01T03:04:57.000Z,27
2019-04-01T03:05:57.000Z,27
2019-04-01T03:07:57.000Z,27
2019-04-01T03:08:57.000Z,27
2019-04-01T03:09:57.000Z,27
2019-04-01T03:10:57.000Z,27
2019-04-01T03:11:57.000Z,27
2019-04-01T03:12:57.000Z,27
2019-04-01T03:13:57.000Z,27
2019-04-01T03:14:57.000Z,27
2019-04-01T03:15:57.000Z,27
2019-04-01T03:16:57.000Z,27
2019-04-01T03:17:57.000Z,27
2019-04-01T03:18:57.000Z,27
2019-04-01T03:19:58.000Z,27
2019-04-01T03:20:58.000Z,27
2019-04-01T03:22:58.000Z,27
2019-04-01T03:23:58.000Z,27
2019-04-01T03:24:58.000Z,27
2019-04-01T03:25:58.000Z,27
2019-04-01T03:26:58.000Z,27
2019-04-01T03:27:58.000Z,27
2019-04-01T03:29:58.000Z,27
2019-04-01T03:30:58.000Z,27
2019-04-01T03:32:58.000Z,27
2019-04-01T03:33:58.000Z,27
2019-04-01T03:34:58.000Z,27
2019-04-01T03:35:58.000Z,27
2019-04-01T03:37:58.000Z,27
2019-04-01T03:38:58.000Z,27
2019-04-01T03:39:58.000Z,27
2019-04-01T03:40:58.000Z,27
2019-04-01T03:41:58.000Z,27
2019-04-01T03:43:58.000Z,27
2019-04-01T03:44:58.000Z,27
2019-04-01T03:45:58.000Z,27
2019-04-01T03:46:58.000Z,27
2019-04-01T03:47:58.000Z,27
2019-04-01T03:48:58.000Z,27
2019-04-01T03:49:58.000Z,27
2019-04-01T03:50:58.000Z,27
2019-04-01T03:51:58.000Z,27
2019-04-01T03:52:58.000Z,27
2019-04-01T03:53:58.000Z,27
2019-04-01T03:54:58.000Z,27
2019-04-01T03:55:58.000Z,27
2019-04-01T03:56:58.000Z,28
2019-04-01T03:57:58.000Z,28
2019-04-01T03:58:58.000Z,28
2019-04-01T03:59:58.000Z,29
2019-04-01T04:00:58.000Z,29
2019-04-01T04:02:58.000Z,30
2019-04-01T04:03:58.000Z,30
2019-04-01T04:04:58.000Z,31
2019-04-01T04:05:58.000Z,31
2019-04-01T04:06:58.000Z,31
2019-04-01T04:08:58.000Z,31
2019-04-01T04:09:58.000Z,31
2019-04-01T04:10:58.000Z,31
2019-04-01T04:11:58.000Z,32
2019-04-01T04:12:58.000Z,32
2019-04-01T04:13:58.000Z,32
2019-04-01T04:14:58.000Z,32
2019-04-01T04:15:58.000Z,32
2019-04-01T04:16:58.000Z,32
2019-04-01T04:17:58.000Z,32
2019-04-01T04:18:58.000Z,32
2019-04-01T04:20:58.000Z,32
2019-04-01T04:21:58.000Z,32
2019-04-01T04:22:58.000Z,32
2019-04-01T04:23:57.000Z,31
2019-04-01T04:24:57.000Z,30
2019-04-01T04:25:57.000Z,30
2019-04-01T04:26:57.000Z,30
2019-04-01T04:27:57.000Z,30
2019-04-01T04:28:57.000Z,30
2019-04-01T04:30:57.000Z,30
2019-04-01T04:31:57.000Z,31
2019-04-01T04:32:57.000Z,31
2019-04-01T04:33:57.000Z,31
2019-04-01T04:34:57.000Z,31
2019-04-01T04:35:57.000Z,31
2019-04-01T04:36:57.000Z,31
2019-04-01T04:37:57.000Z,31
2019-04-01T04:38:57.000Z,31
2019-04-01T04:39:57.000Z,31
2019-04-01T04:40:57.000Z,31
2019-04-01T04:41:57.000Z,31
2019-04-01T04:42:57.000Z,31
2019-04-01T04:43:57.000Z,31
2019-04-01T04:44:57.000Z,31
2019-04-01T04:45:57.000Z,31
2019-04-01T04:47:57.000Z,31
2019-04-01T04:48:57.000Z,31
2019-04-01T04:49:57.000Z,31
2019-04-01T04:50:57.000Z,31
2019-04-01T04:52:57.000Z,31
2019-04-01T04:53:57.000Z,31
2019-04-01T04:55:57.000Z,31
2019-04-01T04:56:57.000Z,32
2019-04-01T04:57:57.000Z,31
2019-04-01T04:58:57.000Z,32
2019-04-01T04:59:57.000Z,31
2019-04-01T05:00:57.000Z,32
2019-04-01T05:01:57.000Z,32
2019-04-01T05:02:57.000Z,32
2019-04-01T05:03:57.000Z,32
2019-04-01T05:04:57.000Z,32
2019-04-01T05:05:57.000Z,32
2019-04-01T05:07:57.000Z,32
2019-04-01T05:08:57.000Z,32
2019-04-01T05:09:57.000Z,32
2019-04-01T05:10:57.000Z,32
2019-04-01T05:11:57.000Z,32
2019-04-01T05:12:57.000Z,32
2019-04-01T05:13:57.000Z,32
2019-04-01T05:14:57.000Z,32
2019-04-01T05:15:57.000Z,32
2019-04-01T05:16:57.000Z,31
2019-04-01T05:17:57.000Z,31
2019-04-01T05:18:57.000Z,31
2019-04-01T05:19:57.000Z,31
2019-04-01T05:20:57.000Z,31
2019-04-01T05:21:57.000Z,31
2019-04-01T05:22:57.000Z,31
2019-04-01T05:24:57.000Z,31
2019-04-01T05:25:57.000Z,31
2019-04-01T05:26:57.000Z,31
2019-04-01T05:27:57.000Z,31
2019-04-01T05:28:57.000Z,31
2019-04-01T05:29:57.000Z,31
2019-04-01T05:30:57.000Z,31
2019-04-01T05:32:57.000Z,31
2019-04-01T05:33:57.000Z,31
2019-04-01T05:34:57.000Z,32
2019-04-01T05:35:57.000Z,32
2019-04-01T05:36:57.000Z,32
2019-04-01T05:37:57.000Z,31
2019-04-01T05:38:57.000Z,31
2019-04-01T05:39:57.000Z,31
2019-04-01T05:40:57.000Z,31
2019-04-01T05:41:57.000Z,31
2019-04-01T05:42:57.000Z,31
2019-04-01T05:43:57.000Z,31
2019-04-01T05:44:57.000Z,31
2019-04-01T05:45:57.000Z,31
2019-04-01T05:46:57.000Z,31
2019-04-01T05:47:57.000Z,31
2019-04-01T05:48:57.000Z,31
2019-04-01T05:49:57.000Z,31
2019-04-01T05:50:57.000Z,31
2019-04-01T05:51:57.000Z,30
2019-04-01T05:52:57.000Z,31
2019-04-01T05:53:57.000Z,31
2019-04-01T05:54:57.000Z,30
2019-04-01T05:56:57.000Z,30
2019-04-01T05:57:57.000Z,30
2019-04-01T05:59:57.000Z,30
2019-04-01T06:00:57.000Z,30
2019-04-01T06:01:57.000Z,30
2019-04-01T06:02:57.000Z,30
2019-04-01T06:03:57.000Z,30
2019-04-01T06:04:57.000Z,30
2019-04-01T06:05:57.000Z,30
2019-04-01T06:06:57.000Z,30
2019-04-01T06:07:57.000Z,30
2019-04-01T06:08:57.000Z,30
2019-04-01T06:09:57.000Z,30
2019-04-01T06:10:57.000Z,29
2019-04-01T06:11:57.000Z,29
2019-04-01T06:12:57.000Z,29
2019-04-01T06:13:57.000Z,29
2019-04-01T06:14:57.000Z,29
2019-04-01T06:15:57.000Z,29
2019-04-01T06:16:57.000Z,29
2019-04-01T06:18:57.000Z,29
2019-04-01T06:19:57.000Z,29
2019-04-01T06:20:57.000Z,29
2019-04-01T06:21:57.000Z,29
2019-04-01T06:22:57.000Z,29
2019-04-01T06:23:57.000Z,29
2019-04-01T06:24:57.000Z,28
2019-04-01T06:25:57.000Z,28
2019-04-01T06:26:57.000Z,28
2019-04-01T06:27:57.000Z,28
2019-04-01T06:28:57.000Z,28
2019-04-01T06:29:57.000Z,28
2019-04-01T06:30:57.000Z,28
2019-04-01T06:31:58.000Z,28
2019-04-01T06:32:58.000Z,28
2019-04-01T06:33:58.000Z,28
2019-04-01T06:34:58.000Z,28
2019-04-01T06:35:58.000Z,28
2019-04-01T06:36:58.000Z,27
2019-04-01T06:37:58.000Z,27
2019-04-01T06:38:58.000Z,26
2019-04-01T06:39:58.000Z,26
2019-04-01T06:40:58.000Z,26
2019-04-01T06:41:58.000Z,26
2019-04-01T06:42:58.000Z,26
2019-04-01T06:43:58.000Z,26
2019-04-01T06:44:58.000Z,26
2019-04-01T06:45:58.000Z,26
2019-04-01T06:46:58.000Z,26
2019-04-01T06:48:58.000Z,26
2019-04-01T06:49:58.000Z,26
2019-04-01T06:50:58.000Z,27
2019-04-01T06:51:58.000Z,27
2019-04-01T06:52:58.000Z,27
2019-04-01T06:54:58.000Z,26
2019-04-01T06:55:58.000Z,26
2019-04-01T06:56:58.000Z,27
2019-04-01T06:57:58.000Z,27
2019-04-01T06:58:58.000Z,27
2019-04-01T06:59:58.000Z,27
2019-04-01T07:00:58.000Z,27
2019-04-01T07:01:58.000Z,27
2019-04-01T07:02:58.000Z,27
2019-04-01T07:03:58.000Z,27
2019-04-01T07:04:58.000Z,27
2019-04-01T07:05:58.000Z,27
2019-04-01T07:06:58.000Z,27
2019-04-01T07:08:58.000Z,27
2019-04-01T07:09:58.000Z,27
2019-04-01T07:10:58.000Z,26
2019-04-01T07:12:58.000Z,26
2019-04-01T07:13:58.000Z,26
2019-04-01T07:14:58.000Z,26
2019-04-01T07:15:58.000Z,26
2019-04-01T07:16:58.000Z,26
2019-04-01T07:17:58.000Z,26
2019-04-01T07:18:58.000Z,26
2019-04-01T07:19:58.000Z,26
2019-04-01T07:20:58.000Z,26
2019-04-01T07:21:58.000Z,26
2019-04-01T07:22:58.000Z,26
2019-04-01T07:23:58.000Z,25
2019-04-01T07:24:58.000Z,25
2019-04-01T07:25:58.000Z,25
2019-04-01T07:26:58.000Z,25
2019-04-01T07:28:58.000Z,25
2019-04-01T07:29:58.000Z,25
2019-04-01T07:30:58.000Z,25
2019-04-01T07:31:58.000Z,25
2019-04-01T07:32:58.000Z,24
2019-04-01T07:33:58.000Z,24
2019-04-01T07:35:58.000Z,24
2019-04-01T07:36:58.000Z,24
2019-04-01T07:37:58.000Z,24
2019-04-01T07:38:58.000Z,24
2019-04-01T07:39:58.000Z,24
2019-04-01T07:41:58.000Z,24
2019-04-01T07:42:58.000Z,24
2019-04-01T07:43:58.000Z,24
2019-04-01T07:44:58.000Z,24
2019-04-01T07:45:58.000Z,24
2019-04-01T07:46:58.000Z,24
2019-04-01T07:47:58.000Z,24
2019-04-01T07:48:58.000Z,24
2019-04-01T07:49:58.000Z,24
2019-04-01T07:50:58.000Z,24
2019-04-01T07:51:58.000Z,24
2019-04-01T07:52:58.000Z,23
2019-04-01T07:53:58.000Z,23
2019-04-01T07:54:58.000Z,23
2019-04-01T07:55:58.000Z,23
2019-04-01T07:56:58.000Z,23
2019-04-01T07:57:58.000Z,23
2019-04-01T07:58:58.000Z,23
2019-04-01T07:59:58.000Z,23
2019-04-01T08:00:58.000Z,23
2019-04-01T08:01:58.000Z,23
2019-04-01T08:02:58.000Z,23
2019-04-01T08:03:58.000Z,23
2019-04-01T08:04:58.000Z,23
2019-04-01T08:06:58.000Z,23
2019-04-01T08:07:58.000Z,23
2019-04-01T08:08:58.000Z,23
2019-04-01T08:09:58.000Z,23
2019-04-01T08:10:58.000Z,23
2019-04-01T08:11:58.000Z,23
2019-04-01T08:12:58.000Z,23
2019-04-01T08:13:58.000Z,23
2019-04-01T08:14:58.000Z,23
2019-04-01T08:15:58.000Z,23
2019-04-01T08:16:58.000Z,23
2019-04-01T08:17:58.000Z,23
2019-04-01T08:18:58.000Z,23
2019-04-01T08:20:58.000Z,23
2019-04-01T08:21:58.000Z,23
2019-04-01T08:22:58.000Z,23
2019-04-01T08:23:58.000Z,23
2019-04-01T08:24:58.000Z,23
2019-04-01T08:25:58.000Z,23
2019-04-01T08:26:58.000Z,23
2019-04-01T08:27:58.000Z,23
2019-04-01T08:28:58.000Z,23
2019-04-01T08:29:58.000Z,23
2019-04-01T08:30:58.000Z,23
2019-04-01T08:31:58.000Z,23
2019-04-01T08:32:58.000Z,23
2019-04-01T08:33:58.000Z,23
2019-04-01T08:34:58.000Z,23
2019-04-01T08:35:58.000Z,23
2019-04-01T08:36:58.000Z,23
2019-04-01T08:37:58.000Z,23
2019-04-01T08:38:58.000Z,23
2019-04-01T08:39:58.000Z,24
2019-04-01T08:40:58.000Z,24
2019-04-01T08:41:58.000Z,23
2019-04-01T08:42:58.000Z,24
2019-04-01T08:43:58.000Z,24
2019-04-01T08:45:58.000Z,23
2019-04-01T08:46:58.000Z,24
2019-04-01T08:47:58.000Z,24
2019-04-01T08:48:58.000Z,24
2019-04-01T08:49:58.000Z,24
2019-04-01T08:50:58.000Z,24
2019-04-01T08:51:58.000Z,24
2019-04-01T08:52:58.000Z,24
2019-04-01T08:53:58.000Z,24
2019-04-01T08:54:58.000Z,24
2019-04-01T08:55:58.000Z,24
2019-04-01T08:56:58.000Z,24
2019-04-01T08:58:58.000Z,24
2019-04-01T08:59:58.000Z,24
2019-04-01T09:00:58.000Z,24
2019-04-01T09:01:58.000Z,24
2019-04-01T09:02:58.000Z,24
2019-04-01T09:03:58.000Z,24
2019-04-01T09:04:58.000Z,24
2019-04-01T09:05:58.000Z,24
2019-04-01T09:06:58.000Z,24
2019-04-01T09:07:58.000Z,24
2019-04-01T09:08:58.000Z,24
2019-04-01T09:09:58.000Z,24
2019-04-01T09:10:58.000Z,25
2019-04-01T09:11:58.000Z,25
2019-04-01T09:12:58.000Z,24
2019-04-01T09:13:58.000Z,24
2019-04-01T09:14:58.000Z,24
2019-04-01T09:15:58.000Z,24
2019-04-01T09:16:58.000Z,24
2019-04-01T09:17:58.000Z,24
2019-04-01T09:18:58.000Z,24
2019-04-01T09:20:58.000Z,24
2019-04-01T09:22:58.000Z,24
2019-04-01T09:23:58.000Z,24
2019-04-01T09:24:58.000Z,25
2019-04-01T09:25:58.000Z,25
2019-04-01T09:26:58.000Z,25
2019-04-01T09:27:58.000Z,25
2019-04-01T09:28:58.000Z,25
2019-04-01T09:29:58.000Z,25
2019-04-01T09:30:58.000Z,25
2019-04-01T09:31:58.000Z,25
2019-04-01T09:32:58.000Z,25
2019-04-01T09:33:58.000Z,25
2019-04-01T09:34:58.000Z,25
2019-04-01T09:35:58.000Z,25
2019-04-01T09:36:58.000Z,25
2019-04-01T09:37:58.000Z,25
2019-04-01T09:38:58.000Z,25
2019-04-01T09:39:58.000Z,25
2019-04-01T09:40:58.000Z,25
2019-04-01T09:41:58.000Z,25
2019-04-01T09:42:57.000Z,25
2019-04-01T09:43:57.000Z,25
2019-04-01T09:45:57.000Z,25
2019-04-01T09:46:57.000Z,25
2019-04-01T09:47:57.000Z,25
2019-04-01T09:48:57.000Z,25
2019-04-01T09:49:57.000Z,25
2019-04-01T09:50:57.000Z,25
2019-04-01T09:51:57.000Z,25
2019-04-01T09:52:57.000Z,25
2019-04-01T09:53:57.000Z,25
2019-04-01T09:55:57.000Z,25
2019-04-01T09:57:57.000Z,25
2019-04-01T09:58:57.000Z,25
2019-04-01T09:59:57.000Z,25
2019-04-01T10:00:57.000Z,25
2019-04-01T10:01:57.000Z,25
2019-04-01T10:02:57.000Z,25
2019-04-01T10:03:57.000Z,25
2019-04-01T10:04:57.000Z,25
2019-04-01T10:05:57.000Z,25
2019-04-01T10:06:57.000Z,25
2019-04-01T10:07:57.000Z,25
2019-04-01T10:08:57.000Z,25
2019-04-01T10:09:57.000Z,25
2019-04-01T10:10:57.000Z,25
2019-04-01T10:11:57.000Z,25
2019-04-01T10:12:57.000Z,25
2019-04-01T10:13:57.000Z,25
2019-04-01T10:15:57.000Z,25
2019-04-01T10:16:57.000Z,25
2019-04-01T10:17:57.000Z,25
2019-04-01T10:18:57.000Z,25
2019-04-01T10:19:57.000Z,25
2019-04-01T10:20:57.000Z,25
2019-04-01T10:21:57.000Z,25
2019-04-01T10:22:57.000Z,25
2019-04-01T10:24:57.000Z,25
2019-04-01T10:25:57.000Z,25
2019-04-01T10:26:57.000Z,25
2019-04-01T10:27:57.000Z,25
2019-04-01T10:28:57.000Z,25
2019-04-01T10:29:57.000Z,25
2019-04-01T10:30:57.000Z,25
2019-04-01T10:31:57.000Z,25
2019-04-01T10:32:57.000Z,25
2019-04-01T10:33:57.000Z,25
2019-04-01T10:34:57.000Z,25
2019-04-01T10:35:57.000Z,25
2019-04-01T10:36:57.000Z,25
2019-04-01T10:37:57.000Z,25
2019-04-01T10:38:57.000Z,25
2019-04-01T10:39:57.000Z,25
2019-04-01T10:40:57.000Z,25
2019-04-01T10:42:57.000Z,25
2019-04-01T10:43:57.000Z,25
2019-04-01T10:44:57.000Z,25
2019-04-01T10:45:57.000Z,25
2019-04-01T10:46:57.000Z,25
2019-04-01T10:47:57.000Z,25
2019-04-01T10:48:57.000Z,25
2019-04-01T10:49:57.000Z,25
2019-04-01T10:51:57.000Z,25
2019-04-01T10:52:57.000Z,25
2019-04-01T10:53:57.000Z,25
2019-04-01T10:54:57.000Z,25
2019-04-01T10:55:57.000Z,25
2019-04-01T10:56:57.000Z,25
2019-04-01T10:57:57.000Z,25
2019-04-01T10:58:57.000Z,25
2019-04-01T10:59:57.000Z,25
2019-04-01T11:00:57.000Z,25
2019-04-01T11:01:57.000Z,25
2019-04-01T11:02:57.000Z,25
2019-04-01T11:03:57.000Z,25
2019-04-01T11:05:57.000Z,25
2019-04-01T11:06:57.000Z,25
2019-04-01T11:07:57.000Z,25
2019-04-01T11:09:57.000Z,25
2019-04-01T11:10:57.000Z,25
2019-04-01T11:12:57.000Z,25
2019-04-01T11:13:57.000Z,25
2019-04-01T11:14:57.000Z,25
2019-04-01T11:16:57.000Z,25
2019-04-01T11:17:57.000Z,25
2019-04-01T11:18:57.000Z,25
2019-04-01T11:19:57.000Z,25
2019-04-01T11:21:57.000Z,25
2019-04-01T11:22:57.000Z,25
2019-04-01T11:23:57.000Z,25
2019-04-01T11:24:57.000Z,25
2019-04-01T11:25:57.000Z,25
2019-04-01T11:26:57.000Z,25
2019-04-01T11:27:57.000Z,24
2019-04-01T11:28:57.000Z,24
2019-04-01T11:30:57.000Z,24
2019-04-01T11:31:57.000Z,24
2019-04-01T11:32:57.000Z,24
2019-04-01T11:33:57.000Z,24
2019-04-01T11:34:57.000Z,24
2019-04-01T11:35:57.000Z,24
2019-04-01T11:36:57.000Z,24
2019-04-01T11:37:57.000Z,24
2019-04-01T11:38:57.000Z,24
2019-04-01T11:39:57.000Z,24
2019-04-01T11:40:57.000Z,24
2019-04-01T11:41:57.000Z,24
2019-04-01T11:42:57.000Z,24
2019-04-01T11:43:57.000Z,24
2019-04-01T11:44:57.000Z,24
2019-04-01T11:45:57.000Z,24
2019-04-01T11:46:57.000Z,24
2019-04-01T11:47:57.000Z,24
2019-04-01T11:48:57.000Z,24
2019-04-01T11:49:57.000Z,24
2019-04-01T11:50:57.000Z,24
2019-04-01T11:51:58.000Z,24
2019-04-01T11:52:58.000Z,24
2019-04-01T11:53:58.000Z,24
2019-04-01T11:54:58.000Z,24
2019-04-01T11:55:58.000Z,24
2019-04-01T11:56:58.000Z,24
2019-04-01T11:57:58.000Z,24
2019-04-01T11:58:58.000Z,24
2019-04-01T11:59:58.000Z,24
2019-04-01T12:00:58.000Z,24
2019-04-01T12:01:58.000Z,24
2019-04-01T12:02:58.000Z,24
2019-04-01T12:04:58.000Z,24
2019-04-01T12:05:58.000Z,24
2019-04-01T12:06:58.000Z,24
2019-04-01T12:07:58.000Z,24
2019-04-01T12:08:58.000Z,24
2019-04-01T12:09:58.000Z,24
2019-04-01T12:10:58.000Z,24
2019-04-01T12:11:58.000Z,24
2019-04-01T12:13:58.000Z,24
2019-04-01T12:15:58.000Z,24
2019-04-01T12:16:58.000Z,24
2019-04-01T12:18:58.000Z,24
2019-04-01T12:19:58.000Z,24
2019-04-01T12:20:58.000Z,24
2019-04-01T12:22:58.000Z,24
2019-04-01T12:23:58.000Z,24
2019-04-01T12:24:58.000Z,24
2019-04-01T12:25:58.000Z,24
2019-04-01T12:26:58.000Z,24
2019-04-01T12:27:58.000Z,24
2019-04-01T12:28:58.000Z,24
2019-04-01T12:29:58.000Z,24
2019-04-01T12:30:58.000Z,24
2019-04-01T12:31:58.000Z,24
2019-04-01T12:32:58.000Z,24
2019-04-01T12:33:58.000Z,24
2019-04-01T12:35:58.000Z,24
2019-04-01T12:36:58.000Z,24
2019-04-01T12:37:58.000Z,24
2019-04-01T12:38:58.000Z,24
2019-04-01T12:39:58.000Z,24
2019-04-01T12:40:58.000Z,24
2019-04-01T12:42:58.000Z,24
2019-04-01T12:43:58.000Z,24
2019-04-01T12:44:58.000Z,24
2019-04-01T12:45:58.000Z,24
2019-04-01T12:47:58.000Z,24
2019-04-01T12:48:58.000Z,24
2019-04-01T12:49:58.000Z,24
2019-04-01T12:50:58.000Z,24
2019-04-01T12:51:58.000Z,24
2019-04-01T12:52:58.000Z,24
2019-04-01T12:53:58.000Z,24
2019-04-01T12:54:58.000Z,24
2019-04-01T12:55:58.000Z,24
2019-04-01T12:56:58.000Z,24
2019-04-01T12:57:58.000Z,24
2019-04-01T12:58:58.000Z,24
2019-04-01T12:59:58.000Z,24
2019-04-01T13:00:58.000Z,24
2019-04-01T13:01:58.000Z,24
2019-04-01T13:02:58.000Z,24
2019-04-01T13:03:58.000Z,24
2019-04-01T13:05:58.000Z,24
2019-04-01T13:06:58.000Z,24
2019-04-01T13:07:58.000Z,24
2019-04-01T13:08:58.000Z,24
2019-04-01T13:09:58.000Z,24
2019-04-01T13:10:58.000Z,24
2019-04-01T13:11:58.000Z,24
2019-04-01T13:12:58.000Z,24
2019-04-01T13:14:58.000Z,24
2019-04-01T13:15:58.000Z,24
2019-04-01T13:16:58.000Z,24
2019-04-01T13:17:58.000Z,24
2019-04-01T13:18:58.000Z,24
2019-04-01T13:19:58.000Z,24
2019-04-01T13:20:58.000Z,24
2019-04-01T13:21:58.000Z,24
2019-04-01T13:22:58.000Z,24
2019-04-01T13:23:58.000Z,24
2019-04-01T13:24:58.000Z,24
2019-04-01T13:25:58.000Z,24
2019-04-01T13:26:58.000Z,24
2019-04-01T13:27:58.000Z,24
2019-04-01T13:28:58.000Z,24
2019-04-01T13:29:58.000Z,24
2019-04-01T13:30:58.000Z,24
2019-04-01T13:31:58.000Z,24
2019-04-01T13:32:58.000Z,24
2019-04-01T13:33:58.000Z,24
2019-04-01T13:34:58.000Z,24
2019-04-01T13:35:58.000Z,24
2019-04-01T13:36:58.000Z,24
2019-04-01T13:37:58.000Z,24
2019-04-01T13:38:58.000Z,24
2019-04-01T13:39:58.000Z,24
2019-04-01T13:40:58.000Z,24
2019-04-01T13:41:58.000Z,23
2019-04-01T13:42:58.000Z,23
2019-04-01T13:43:58.000Z,23
2019-04-01T13:44:58.000Z,23
2019-04-01T13:46:58.000Z,23
2019-04-01T13:47:58.000Z,23
2019-04-01T13:48:58.000Z,23
2019-04-01T13:50:58.000Z,22
2019-04-01T13:51:58.000Z,23
2019-04-01T13:52:58.000Z,23
2019-04-01T13:53:58.000Z,23
2019-04-01T13:54:58.000Z,23
2019-04-01T13:55:58.000Z,23
2019-04-01T13:57:58.000Z,23
2019-04-01T13:58:58.000Z,23
2019-04-01T13:59:57.000Z,23
2019-04-01T14:00:57.000Z,23
2019-04-01T14:01:57.000Z,23
2019-04-01T14:02:57.000Z,23
2019-04-01T14:03:57.000Z,23
2019-04-01T14:04:57.000Z,24
2019-04-01T14:05:57.000Z,24
2019-04-01T14:06:57.000Z,24
2019-04-01T14:07:57.000Z,24
2019-04-01T14:08:57.000Z,24
2019-04-01T14:09:57.000Z,24
2019-04-01T14:10:57.000Z,24
2019-04-01T14:11:57.000Z,24
2019-04-01T14:13:57.000Z,24
2019-04-01T14:14:57.000Z,24
2019-04-01T14:16:57.000Z,24
2019-04-01T14:18:57.000Z,24
2019-04-01T14:20:57.000Z,24
2019-04-01T14:21:57.000Z,24
2019-04-01T14:22:57.000Z,24
2019-04-01T14:23:57.000Z,24
2019-04-01T14:25:57.000Z,24
2019-04-01T14:26:57.000Z,24
2019-04-01T14:27:57.000Z,24
2019-04-01T14:28:57.000Z,24
2019-04-01T14:29:57.000Z,24
2019-04-01T14:30:57.000Z,24
2019-04-01T14:31:57.000Z,24
2019-04-01T14:32:57.000Z,24
2019-04-01T14:34:57.000Z,24
2019-04-01T14:35:57.000Z,24
2019-04-01T14:36:57.000Z,25
2019-04-01T14:37:57.000Z,24
2019-04-01T14:38:57.000Z,25
2019-04-01T14:39:57.000Z,24
2019-04-01T14:41:57.000Z,24
2019-04-01T14:42:57.000Z,24
2019-04-01T14:43:57.000Z,25
2019-04-01T14:44:57.000Z,24
2019-04-01T14:45:57.000Z,25
2019-04-01T14:46:57.000Z,25
2019-04-01T14:47:57.000Z,25
2019-04-01T14:48:57.000Z,25
2019-04-01T14:49:57.000Z,24
2019-04-01T14:50:57.000Z,25
2019-04-01T14:51:57.000Z,25
2019-04-01T14:52:57.000Z,25
2019-04-01T14:54:57.000Z,24
2019-04-01T14:55:57.000Z,25
2019-04-01T14:56:57.000Z,24
2019-04-01T14:57:57.000Z,25
2019-04-01T14:58:57.000Z,25
2019-04-01T14:59:57.000Z,25
2019-04-01T15:00:57.000Z,25
2019-04-01T15:01:57.000Z,25
2019-04-01T15:02:57.000Z,25
2019-04-01T15:04:57.000Z,25
2019-04-01T15:05:57.000Z,25
2019-04-01T15:06:57.000Z,25
2019-04-01T15:07:57.000Z,25
2019-04-01T15:08:57.000Z,25
2019-04-01T15:09:57.000Z,25
2019-04-01T15:10:57.000Z,25
2019-04-01T15:11:57.000Z,25
2019-04-01T15:12:57.000Z,25
2019-04-01T15:14:57.000Z,25
2019-04-01T15:15:57.000Z,25
2019-04-01T15:16:57.000Z,25
2019-04-01T15:18:57.000Z,25
2019-04-01T15:19:57.000Z,25
2019-04-01T15:20:57.000Z,25
2019-04-01T15:21:57.000Z,25
2019-04-01T15:22:57.000Z,25
2019-04-01T15:23:57.000Z,25
2019-04-01T15:25:57.000Z,25
2019-04-01T15:26:57.000Z,25
2019-04-01T15:27:57.000Z,25
2019-04-01T15:28:57.000Z,25
2019-04-01T15:29:57.000Z,25
2019-04-01T15:31:57.000Z,25
2019-04-01T15:32:57.000Z,25
2019-04-01T15:33:57.000Z,25
2019-04-01T15:34:57.000Z,25
2019-04-01T15:35:57.000Z,25
2019-04-01T15:36:57.000Z,25
2019-04-01T15:37:57.000Z,25
2019-04-01T15:39:57.000Z,25
2019-04-01T15:40:57.000Z,25
2019-04-01T15:41:57.000Z,25
2019-04-01T15:42:57.000Z,25
2019-04-01T15:43:57.000Z,25
2019-04-01T15:44:57.000Z,25
2019-04-01T15:45:57.000Z,25